createdAt,value
2018-08-31T00:00:00.756Z,8.67
2018-08-31T00:02:54.054Z,9.23
2018-08-31T00:05:46.009Z,9.13
2018-08-31T00:08:31.696Z,8.90
2018-08-31T00:13:19.620Z,8.50
2018-08-31T00:15:54.101Z,8.20
2018-08-31T00:18:28.836Z,8.00
2018-08-31T00:21:03.380Z,7.97
2018-08-31T00:23:49.532Z,8.43
2018-08-31T00:26:35.357Z,8.40
2018-08-31T00:29:49.176Z,8.10
2018-08-31T00:34:38.175Z,8.93
2018-08-31T00:37:23.075Z,9.30
2018-08-31T00:40:11.344Z,9.27
2018-08-31T00:45:03.640Z,10.33
2018-08-31T00:47:38.056Z,10.47
2018-08-31T00:50:12.717Z,9.53
2018-08-31T00:52:47.708Z,9.57
2018-08-31T00:55:22.107Z,9.90
2018-08-31T00:57:57.019Z,9.93
2018-08-31T01:00:32.055Z,9.90
2018-08-31T01:03:06.828Z,10.60
2018-08-31T01:05:42.372Z,10.60
2018-08-31T01:08:16.995Z,9.57
2018-08-31T01:10:51.974Z,10.27
2018-08-31T01:13:27.319Z,10.07
2018-08-31T01:16:02.352Z,9.60
2018-08-31T01:18:37.067Z,9.57
2018-08-31T01:21:12.096Z,9.37
2018-08-31T01:23:46.956Z,10.50
2018-08-31T01:26:22.331Z,9.40
2018-08-31T01:28:57.259Z,9.70
2018-08-31T01:31:31.783Z,10.50
2018-08-31T01:34:06.625Z,9.50
2018-08-31T01:36:41.036Z,9.23
2018-08-31T01:39:15.989Z,9.10
2018-08-31T01:41:50.544Z,9.97
2018-08-31T01:44:25.424Z,9.97
2018-08-31T01:47:00.098Z,9.53
2018-08-31T01:49:34.692Z,9.33
2018-08-31T01:52:09.181Z,10.07
2018-08-31T01:54:43.553Z,9.70
2018-08-31T01:57:18.232Z,10.00
2018-08-31T01:59:53.120Z,9.53
2018-08-31T02:02:27.651Z,10.50
2018-08-31T02:05:02.190Z,10.30
2018-08-31T02:07:36.497Z,11.03
2018-08-31T02:10:11.467Z,12.90
2018-08-31T02:12:46.163Z,14.47
2018-08-31T02:15:20.944Z,13.87
2018-08-31T02:17:55.709Z,14.70
2018-08-31T02:20:30.463Z,14.53
2018-08-31T02:23:04.907Z,13.87
2018-08-31T02:25:39.580Z,16.10
2018-08-31T02:28:14.331Z,15.67
2018-08-31T02:30:48.832Z,15.37
2018-08-31T02:33:23.305Z,14.50
2018-08-31T02:35:59.618Z,14.67
2018-08-31T02:38:34.206Z,14.23
2018-08-31T02:41:09.021Z,15.20
2018-08-31T02:43:44.779Z,14.57
2018-08-31T02:46:21.557Z,14.23
2018-08-31T02:48:56.239Z,14.00
2018-08-31T02:51:30.540Z,13.47
2018-08-31T02:54:05.371Z,13.63
2018-08-31T02:56:39.852Z,13.70
2018-08-31T02:59:14.511Z,13.20
2018-08-31T03:01:48.771Z,13.63
2018-08-31T03:04:23.549Z,14.73
2018-08-31T03:06:58.414Z,15.90
2018-08-31T03:09:33.500Z,14.83
2018-08-31T03:12:08.952Z,15.20
2018-08-31T03:14:43.768Z,14.37
2018-08-31T03:17:18.371Z,15.43
2018-08-31T03:19:53.046Z,16.13
2018-08-31T03:22:27.418Z,14.77
2018-08-31T03:25:01.852Z,14.77
2018-08-31T03:27:37.001Z,15.43
2018-08-31T03:30:12.182Z,17.33
2018-08-31T03:32:47.277Z,17.30
2018-08-31T03:35:21.981Z,19.20
2018-08-31T03:37:56.769Z,19.37
2018-08-31T03:40:31.863Z,20.00
2018-08-31T03:43:06.771Z,18.47
2018-08-31T03:45:41.236Z,18.43
2018-08-31T03:48:16.132Z,21.23
2018-08-31T03:50:50.981Z,20.80
2018-08-31T03:53:26.020Z,20.73
2018-08-31T03:56:00.599Z,20.03
2018-08-31T03:58:35.416Z,19.17
2018-08-31T04:01:10.020Z,19.00
2018-08-31T04:03:44.875Z,19.30
2018-08-31T04:06:19.658Z,19.83
2018-08-31T04:08:54.915Z,19.27
2018-08-31T04:11:29.600Z,20.97
2018-08-31T04:14:05.394Z,22.97
2018-08-31T04:16:39.703Z,20.87
2018-08-31T04:19:18.503Z,20.87
2018-08-31T04:21:53.387Z,20.93
2018-08-31T04:24:28.946Z,21.80
2018-08-31T04:27:03.805Z,21.63
2018-08-31T04:29:38.661Z,21.53
2018-08-31T04:32:14.317Z,23.00
2018-08-31T04:34:48.804Z,21.83
2018-08-31T04:37:23.153Z,20.90
2018-08-31T04:39:57.948Z,20.97
2018-08-31T04:42:32.403Z,20.63
2018-08-31T04:45:06.734Z,19.63
2018-08-31T04:47:41.275Z,20.27
2018-08-31T04:50:15.887Z,21.80
2018-08-31T04:52:51.181Z,21.30
2018-08-31T04:55:26.269Z,21.53
2018-08-31T04:58:01.128Z,20.43
2018-08-31T05:00:35.499Z,21.27
2018-08-31T05:03:10.199Z,21.63
2018-08-31T05:05:44.786Z,21.33
2018-08-31T05:08:20.086Z,19.70
2018-08-31T05:10:54.788Z,20.30
2018-08-31T05:13:29.263Z,20.53
2018-08-31T05:16:04.095Z,20.03
2018-08-31T05:18:39.028Z,21.57
2018-08-31T05:21:13.462Z,19.70
2018-08-31T05:23:48.256Z,20.37
2018-08-31T05:26:22.800Z,19.90
2018-08-31T05:28:57.579Z,22.13
2018-08-31T05:31:32.342Z,22.93
2018-08-31T05:34:07.695Z,21.17
2018-08-31T05:36:42.939Z,22.73
2018-08-31T05:39:17.824Z,22.87
2018-08-31T05:41:52.242Z,21.87
2018-08-31T05:44:26.555Z,23.20
2018-08-31T05:47:02.223Z,23.77
2018-08-31T05:49:36.887Z,23.87
2018-08-31T05:52:11.228Z,23.77
2018-08-31T05:54:46.008Z,23.60
2018-08-31T05:57:20.571Z,22.93
2018-08-31T05:59:55.452Z,24.40
2018-08-31T06:02:30.093Z,23.87
2018-08-31T06:05:04.872Z,23.93
2018-08-31T06:07:39.352Z,23.23
2018-08-31T06:10:13.822Z,24.77
2018-08-31T06:12:48.287Z,22.47
2018-08-31T06:15:22.988Z,23.40
2018-08-31T06:17:57.638Z,25.27
2018-08-31T06:20:32.157Z,25.50
2018-08-31T06:23:07.156Z,23.13
2018-08-31T06:25:41.743Z,22.97
2018-08-31T06:28:16.195Z,25.03
2018-08-31T06:30:50.651Z,24.40
2018-08-31T06:33:25.505Z,23.83
2018-08-31T06:35:59.867Z,24.20
2018-08-31T06:38:34.736Z,24.70
2018-08-31T06:41:09.739Z,24.10
2018-08-31T06:43:44.204Z,24.40
2018-08-31T06:46:19.299Z,23.43
2018-08-31T06:48:54.516Z,23.33
2018-08-31T06:51:29.803Z,24.03
2018-08-31T06:54:05.208Z,23.03
2018-08-31T06:56:39.745Z,23.60
2018-08-31T06:59:14.516Z,23.47
2018-08-31T07:01:48.912Z,23.37
2018-08-31T07:04:23.605Z,22.43
2018-08-31T07:06:58.970Z,22.70
2018-08-31T07:09:33.771Z,22.23
2018-08-31T07:12:08.292Z,22.10
2018-08-31T07:14:43.436Z,22.40
2018-08-31T07:17:18.398Z,22.43
2018-08-31T07:19:54.634Z,22.20
2018-08-31T07:22:29.643Z,22.80
2018-08-31T07:25:04.599Z,23.43
2018-08-31T07:27:39.172Z,23.67
2018-08-31T07:30:14.776Z,25.23
2018-08-31T07:32:49.483Z,24.90
2018-08-31T07:35:23.823Z,23.83
2018-08-31T07:40:36.187Z,24.43
2018-08-31T07:43:10.886Z,25.50
2018-08-31T07:45:45.896Z,24.83
2018-08-31T07:48:20.746Z,25.30
2018-08-31T07:50:55.749Z,26.97
2018-08-31T07:53:30.646Z,26.67
2018-08-31T07:56:05.774Z,25.87
2018-08-31T07:58:40.204Z,25.63
2018-08-31T08:01:15.164Z,24.40
2018-08-31T08:03:49.952Z,22.63
2018-08-31T08:06:24.813Z,22.53
2018-08-31T08:08:59.453Z,23.67
2018-08-31T08:11:34.263Z,23.73
2018-08-31T08:14:09.466Z,23.27
2018-08-31T08:16:43.993Z,22.93
2018-08-31T08:19:18.786Z,22.90
2018-08-31T08:21:53.355Z,24.40
2018-08-31T08:24:27.995Z,24.20
2018-08-31T08:27:02.841Z,23.00
2018-08-31T08:29:37.397Z,23.57
2018-08-31T08:35:05.005Z,24.80
2018-08-31T08:37:40.676Z,22.97
2018-08-31T08:40:15.312Z,22.47
2018-08-31T08:42:50.081Z,25.97
2018-08-31T08:45:27.076Z,24.93
2018-08-31T08:48:01.990Z,24.77
2018-08-31T08:50:36.584Z,27.73
2018-08-31T08:53:17.547Z,24.73
2018-08-31T08:55:52.630Z,26.33
2018-08-31T08:58:29.155Z,26.47
2018-08-31T09:01:03.884Z,25.67
2018-08-31T09:03:38.756Z,25.37
2018-08-31T09:06:13.964Z,30.47
2018-08-31T09:08:48.402Z,30.90
2018-08-31T09:11:23.355Z,27.73
2018-08-31T09:13:59.863Z,30.73
2018-08-31T09:16:39.446Z,28.40
2018-08-31T09:19:14.759Z,29.30
2018-08-31T09:21:49.751Z,30.77
2018-08-31T09:24:24.396Z,33.17
2018-08-31T09:26:59.179Z,33.43
2018-08-31T09:29:34.043Z,33.70
2018-08-31T09:32:14.192Z,33.73
2018-08-31T09:34:52.095Z,33.30
2018-08-31T09:37:27.223Z,33.33
2018-08-31T09:40:01.922Z,31.87
2018-08-31T09:42:36.925Z,31.47
2018-08-31T09:45:12.308Z,29.97
2018-08-31T09:47:46.802Z,31.00
2018-08-31T09:50:21.455Z,30.57
2018-08-31T09:52:56.176Z,27.87
2018-08-31T09:55:31.260Z,27.60
2018-08-31T09:58:05.571Z,29.40
2018-08-31T10:00:45.747Z,28.77
2018-08-31T10:03:22.441Z,28.50
2018-08-31T10:05:57.169Z,28.57
2018-08-31T10:08:32.280Z,28.37
2018-08-31T10:11:06.579Z,28.13
2018-08-31T10:13:41.076Z,30.13
2018-08-31T10:16:15.984Z,31.57
2018-08-31T10:18:50.319Z,30.43
2018-08-31T10:21:25.361Z,27.60
2018-08-31T10:23:59.921Z,29.10
2018-08-31T10:26:34.756Z,26.40
2018-08-31T10:29:09.858Z,26.07
2018-08-31T10:31:44.921Z,24.53
2018-08-31T10:34:19.776Z,26.67
2018-08-31T10:36:54.748Z,33.03
2018-08-31T10:39:29.594Z,27.77
2018-08-31T10:42:04.796Z,27.23
2018-08-31T10:44:39.686Z,29.27
2018-08-31T10:47:14.458Z,28.33
2018-08-31T10:49:49.452Z,25.57
2018-08-31T10:52:24.163Z,25.83
2018-08-31T10:54:59.032Z,25.50
2018-08-31T10:57:34.211Z,32.40
2018-08-31T11:00:08.739Z,28.50
2018-08-31T11:02:43.904Z,30.87
2018-08-31T11:05:18.183Z,28.03
2018-08-31T11:07:53.341Z,30.60
2018-08-31T11:10:28.088Z,32.20
2018-08-31T11:13:07.211Z,29.00
2018-08-31T11:15:43.303Z,27.83
2018-08-31T11:18:18.457Z,31.53
2018-08-31T11:20:55.813Z,29.03
2018-08-31T11:23:30.999Z,26.27
2018-08-31T11:26:05.753Z,26.97
2018-08-31T11:28:42.134Z,27.70
2018-08-31T11:31:16.896Z,25.47
2018-08-31T11:33:52.100Z,23.50
2018-08-31T11:36:27.162Z,24.40
2018-08-31T11:39:01.687Z,24.20
2018-08-31T11:41:36.414Z,25.83
2018-08-31T11:44:10.861Z,24.93
2018-08-31T11:46:45.711Z,23.90
2018-08-31T11:49:20.736Z,27.50
2018-08-31T11:51:55.268Z,27.87
2018-08-31T11:54:29.911Z,24.87
2018-08-31T11:57:06.024Z,23.97
2018-08-31T11:59:40.854Z,27.17
2018-08-31T12:02:15.272Z,24.57
2018-08-31T12:04:50.368Z,25.33
2018-08-31T12:07:25.439Z,24.30
2018-08-31T12:10:00.079Z,23.17
2018-08-31T12:12:34.948Z,18.67
2018-08-31T12:15:09.844Z,17.00
2018-08-31T12:17:44.334Z,16.40
2018-08-31T12:20:18.904Z,18.30
2018-08-31T12:22:54.156Z,17.30
2018-08-31T12:25:29.037Z,19.50
2018-08-31T12:28:08.643Z,17.50
2018-08-31T12:30:44.872Z,16.07
2018-08-31T12:33:19.185Z,18.80
2018-08-31T12:35:54.851Z,17.37
2018-08-31T12:38:29.487Z,14.97
2018-08-31T12:41:03.983Z,15.03
2018-08-31T12:43:38.685Z,15.40
2018-08-31T12:46:14.176Z,17.33
2018-08-31T12:48:48.758Z,17.23
2018-08-31T12:51:26.107Z,15.37
2018-08-31T12:54:00.559Z,15.67
2018-08-31T12:56:35.760Z,15.73
2018-08-31T12:59:10.443Z,13.87
2018-08-31T13:01:46.570Z,14.93
2018-08-31T13:04:21.428Z,14.60
2018-08-31T13:06:56.465Z,14.50
2018-08-31T13:09:31.123Z,12.83
2018-08-31T13:12:06.316Z,14.00
2018-08-31T13:14:41.200Z,13.80
2018-08-31T13:17:15.861Z,14.30
2018-08-31T13:19:50.632Z,15.73
2018-08-31T13:22:26.472Z,15.90
2018-08-31T13:25:01.225Z,15.77
2018-08-31T13:27:36.856Z,15.23
2018-08-31T13:30:11.578Z,15.00
2018-08-31T13:32:46.160Z,15.97
2018-08-31T13:35:21.076Z,15.23
2018-08-31T13:37:57.890Z,15.43
2018-08-31T13:40:33.384Z,15.33
2018-08-31T13:43:08.097Z,15.63
2018-08-31T13:45:42.660Z,15.17
2018-08-31T13:48:17.176Z,18.17
2018-08-31T13:50:51.812Z,18.00
2018-08-31T13:53:26.491Z,19.63
2018-08-31T13:56:01.847Z,20.77
2018-08-31T13:58:36.245Z,20.50
2018-08-31T14:01:11.091Z,21.20
2018-08-31T14:03:45.391Z,22.03
2018-08-31T14:06:20.108Z,22.90
2018-08-31T14:08:54.534Z,21.00
2018-08-31T14:11:29.411Z,22.40
2018-08-31T14:14:03.836Z,19.40
2018-08-31T14:16:38.429Z,20.63
2018-08-31T14:19:13.314Z,20.53
2018-08-31T14:21:48.437Z,17.33
2018-08-31T14:24:23.708Z,17.73
2018-08-31T14:26:59.175Z,17.67
2018-08-31T14:29:33.908Z,16.50
2018-08-31T14:32:08.912Z,17.67
2018-08-31T14:34:44.183Z,16.23
2018-08-31T14:37:19.223Z,18.77
2018-08-31T14:39:53.530Z,16.60
2018-08-31T14:42:28.080Z,17.47
2018-08-31T14:45:05.337Z,17.67
2018-08-31T14:47:40.275Z,17.20
2018-08-31T14:50:14.978Z,17.20
2018-08-31T14:52:49.797Z,16.40
2018-08-31T14:55:24.514Z,17.30
2018-08-31T14:57:59.468Z,17.53
2018-08-31T15:00:42.127Z,20.43
2018-08-31T15:03:19.364Z,19.80
2018-08-31T15:05:54.649Z,19.17
2018-08-31T15:08:29.703Z,20.00
2018-08-31T15:11:04.600Z,21.30
2018-08-31T15:13:39.040Z,20.63
2018-08-31T15:16:13.423Z,20.50
2018-08-31T15:18:48.030Z,19.93
2018-08-31T15:21:22.795Z,19.13
2018-08-31T15:23:57.185Z,20.43
2018-08-31T15:26:31.722Z,20.83
2018-08-31T15:29:06.686Z,19.57
2018-08-31T15:31:41.318Z,20.27
2018-08-31T15:34:16.199Z,18.20
2018-08-31T15:36:50.634Z,17.57
2018-08-31T15:39:25.817Z,18.63
2018-08-31T15:42:02.204Z,19.03
2018-08-31T15:44:36.929Z,19.33
2018-08-31T15:47:12.237Z,18.67
2018-08-31T15:49:47.109Z,19.53
2018-08-31T15:52:21.908Z,18.13
2018-08-31T15:54:56.819Z,21.30
2018-08-31T15:57:31.520Z,21.17
2018-08-31T16:00:07.400Z,20.60
2018-08-31T16:02:45.868Z,20.97
2018-08-31T16:05:20.706Z,21.00
2018-08-31T16:07:56.064Z,18.47
2018-08-31T16:10:31.566Z,19.30
2018-08-31T16:13:10.281Z,19.87
2018-08-31T16:15:45.086Z,20.70
2018-08-31T16:18:19.742Z,19.67
2018-08-31T16:20:54.560Z,22.40
2018-08-31T16:23:29.855Z,23.30
2018-08-31T16:26:05.127Z,22.50
2018-08-31T16:28:40.287Z,21.57
2018-08-31T16:31:14.629Z,22.93
2018-08-31T16:33:49.628Z,20.07
2018-08-31T16:36:24.611Z,20.93
2018-08-31T16:38:59.680Z,20.47
2018-08-31T16:41:34.609Z,18.60
2018-08-31T16:44:08.945Z,21.60
2018-08-31T16:46:43.328Z,19.50
2018-08-31T16:49:17.863Z,20.70
2018-08-31T16:51:52.273Z,21.47
2018-08-31T16:54:27.130Z,20.90
2018-08-31T16:57:01.968Z,21.00
2018-08-31T16:59:36.532Z,20.07
2018-08-31T17:02:11.221Z,20.50
2018-08-31T17:04:47.104Z,23.30
2018-08-31T17:07:21.728Z,20.90
2018-08-31T17:09:57.444Z,20.40
2018-08-31T17:12:32.201Z,19.97
2018-08-31T17:15:06.974Z,21.00
2018-08-31T17:17:41.531Z,23.80
2018-08-31T17:20:17.251Z,25.93
2018-08-31T17:22:52.143Z,24.13
2018-08-31T17:25:27.379Z,22.63
2018-08-31T17:28:10.324Z,23.53
2018-08-31T17:30:45.230Z,26.80
2018-08-31T17:33:26.441Z,25.90
2018-08-31T17:36:07.051Z,22.20
2018-08-31T17:38:41.842Z,24.13
2018-08-31T17:41:16.287Z,23.40
2018-08-31T17:43:50.852Z,23.67
2018-08-31T17:46:26.002Z,21.27
2018-08-31T17:49:01.235Z,26.50
2018-08-31T17:51:36.843Z,24.33
2018-08-31T17:54:11.408Z,24.67
2018-08-31T17:56:46.552Z,24.77
2018-08-31T17:59:21.027Z,24.53
2018-08-31T18:01:55.604Z,28.10
2018-08-31T18:04:30.100Z,26.17
2018-08-31T18:07:05.424Z,28.07
2018-08-31T18:09:40.484Z,27.83
2018-08-31T18:12:16.064Z,27.90
2018-08-31T18:14:50.741Z,27.07
2018-08-31T18:17:25.751Z,27.47
2018-08-31T18:20:00.387Z,28.27
2018-08-31T18:22:34.901Z,30.00
2018-08-31T18:25:09.196Z,29.50
2018-08-31T18:27:43.648Z,26.80
2018-08-31T18:30:18.302Z,23.47
2018-08-31T18:32:52.661Z,22.97
2018-08-31T18:35:27.091Z,22.23
2018-08-31T18:38:02.077Z,21.87
2018-08-31T18:40:37.024Z,21.97
2018-08-31T18:43:11.759Z,22.30
2018-08-31T18:45:46.612Z,20.93
2018-08-31T18:48:21.104Z,20.73
2018-08-31T18:50:56.184Z,20.03
2018-08-31T18:53:31.051Z,22.17
2018-08-31T18:56:05.854Z,22.33
2018-08-31T18:58:40.531Z,22.33
2018-08-31T19:01:14.910Z,20.57
2018-08-31T19:03:49.239Z,20.33
2018-08-31T19:06:24.044Z,18.73
2018-08-31T19:08:58.516Z,20.77
2018-08-31T19:11:33.479Z,19.63
2018-08-31T19:14:08.671Z,18.37
2018-08-31T19:16:43.415Z,18.23
2018-08-31T19:19:18.263Z,16.30
2018-08-31T19:21:52.527Z,17.43
2018-08-31T19:24:27.231Z,15.90
2018-08-31T19:27:01.825Z,16.53
2018-08-31T19:29:36.576Z,16.27
2018-08-31T19:32:11.127Z,18.70
2018-08-31T19:34:45.748Z,20.00
2018-08-31T19:37:20.078Z,20.37
2018-08-31T19:39:54.560Z,20.63
2018-08-31T19:42:29.025Z,19.20
2018-08-31T19:45:03.758Z,19.70
2018-08-31T19:47:38.854Z,18.80
2018-08-31T19:50:13.267Z,21.50
2018-08-31T19:52:48.172Z,21.43
2018-08-31T19:55:23.481Z,21.90
2018-08-31T19:57:58.018Z,21.33
2018-08-31T20:00:32.794Z,21.80
2018-08-31T20:03:08.336Z,26.67
2018-08-31T20:05:42.993Z,24.77
2018-08-31T20:08:17.524Z,25.83
2018-08-31T20:10:52.706Z,24.97
2018-08-31T20:13:27.605Z,27.03
2018-08-31T20:16:07.161Z,27.10
2018-08-31T20:18:42.351Z,30.43
2018-08-31T20:21:16.946Z,29.27
2018-08-31T20:23:52.823Z,32.93
2018-08-31T20:26:27.686Z,33.77
2018-08-31T20:29:02.167Z,30.17
2018-08-31T20:31:37.021Z,35.17
2018-08-31T20:34:11.868Z,32.27
2018-08-31T20:36:46.404Z,35.67
2018-08-31T20:39:22.828Z,34.60
2018-08-31T20:42:00.145Z,34.67
2018-08-31T20:44:34.729Z,35.80
2018-08-31T20:47:10.759Z,35.07
2018-08-31T20:49:46.217Z,33.17
2018-08-31T20:52:20.709Z,35.10
2018-08-31T20:54:55.233Z,34.77
2018-08-31T20:57:29.989Z,32.80
2018-08-31T21:00:04.539Z,36.40
2018-08-31T21:02:39.365Z,33.63
2018-08-31T21:05:14.380Z,34.83
2018-08-31T21:07:48.867Z,35.27
2018-08-31T21:10:23.679Z,32.43
2018-08-31T21:12:58.392Z,31.10
2018-08-31T21:15:33.073Z,30.70
2018-08-31T21:18:08.409Z,33.67
2018-08-31T21:20:43.067Z,31.37
2018-08-31T21:23:18.968Z,28.73
2018-08-31T21:25:54.035Z,30.10
2018-08-31T21:28:28.882Z,31.70
2018-08-31T21:31:03.957Z,28.67
2018-08-31T21:33:38.943Z,28.80
2018-08-31T21:36:13.711Z,29.63
2018-08-31T21:38:48.257Z,29.87
2018-08-31T21:41:23.310Z,28.53
2018-08-31T21:43:58.391Z,29.93
2018-08-31T21:46:33.976Z,26.67
2018-08-31T21:49:08.533Z,27.00
2018-08-31T21:51:43.219Z,29.73
2018-08-31T21:54:17.664Z,26.63
2018-08-31T21:56:52.615Z,26.30
2018-08-31T21:59:30.608Z,26.73
2018-08-31T22:02:05.255Z,25.83
2018-08-31T22:04:39.935Z,24.27
2018-08-31T22:07:14.479Z,24.63
2018-08-31T22:09:50.104Z,25.67
2018-08-31T22:12:24.984Z,26.40
2018-08-31T22:15:00.013Z,26.57
2018-08-31T22:17:34.715Z,26.07
2018-08-31T22:20:09.200Z,25.20
2018-08-31T22:22:43.768Z,24.03
2018-08-31T22:27:55.416Z,25.47
2018-08-31T22:30:31.725Z,26.53
2018-08-31T22:33:06.337Z,26.03
2018-08-31T22:35:41.481Z,25.27
2018-08-31T22:38:16.059Z,24.57
2018-08-31T22:40:50.556Z,25.90
2018-08-31T22:43:32.962Z,25.50
2018-08-31T22:46:07.617Z,23.93
2018-08-31T22:48:42.433Z,24.57
2018-08-31T22:51:16.927Z,26.53
2018-08-31T22:53:51.347Z,26.53
2018-08-31T22:56:25.963Z,25.37
2018-08-31T22:59:00.577Z,24.77
2018-08-31T23:01:34.948Z,23.80
2018-08-31T23:04:09.521Z,23.97
2018-08-31T23:06:44.595Z,26.13
2018-08-31T23:09:19.692Z,25.73
2018-08-31T23:11:54.634Z,24.73
2018-08-31T23:14:29.247Z,26.13
2018-08-31T23:17:03.772Z,25.63
2018-08-31T23:19:38.204Z,28.37
2018-08-31T23:22:12.851Z,30.60
2018-08-31T23:24:47.375Z,31.37
2018-08-31T23:27:21.879Z,27.90
2018-08-31T23:29:56.399Z,28.47
2018-08-31T23:32:31.325Z,27.80
2018-08-31T23:35:05.899Z,29.27
2018-08-31T23:37:40.262Z,28.17
2018-08-31T23:40:15.372Z,30.37
2018-08-31T23:42:49.827Z,31.87
2018-08-31T23:45:24.689Z,28.90
2018-08-31T23:47:59.228Z,29.87
2018-08-31T23:50:33.896Z,29.93
2018-08-31T23:53:08.637Z,28.67
2018-08-31T23:55:54.591Z,27.97
2018-08-31T23:58:29.643Z,30.20
